Observation data for Anton on 02/22/2019      Previous  Date  Next       Current Mesonet Observations  Soil Data  Daily Summary Page  Observations in Plain Language
KAOS 220600Z 13012KT 03/M05 A2985 RMK A01 T00341051  RH  054%=      5-min Rain = 0
KAOS 220605Z 13013KT 04/M05 A2985 RMK A01 T00351049  RH  054%=      5-min Rain = 0
KAOS 220610Z 13013KT 03/M05 A2985 RMK A01 T00341049  RH  055%=      5-min Rain = 0
KAOS 220615Z 13013KT 03/M05 A2985 RMK A01 T00341049  RH  055%=      5-min Rain = 0
KAOS 220620Z 13012KT 03/M05 A2985 RMK A01 T00321050  RH  055%=      5-min Rain = 0
KAOS 220625Z 12011KT 03/M05 A2985 RMK A01 T00291052  RH  056%=      5-min Rain = 0
KAOS 220630Z 12011KT 03/M05 A2985 RMK A01 T00271053  RH  056%=      5-min Rain = 0
KAOS 220635Z 12011KT 03/M05 A2985 RMK A01 T00261052  RH  056%=      5-min Rain = 0
KAOS 220640Z 12011KT 03/M05 A2985 RMK A01 T00251052  RH  057%=      5-min Rain = 0
KAOS 220645Z 12011KT 02/M05 A2985 RMK A01 T00241051  RH  058%=      5-min Rain = 0
KAOS 220650Z 12011KT 02/M05 A2985 RMK A01 T00231052  RH  058%=      5-min Rain = 0
KAOS 220655Z 12011KT 02/M05 A2985 RMK A01 T00221051  RH  059%=      5-min Rain = 0
KAOS 220700Z 12011KT 02/M05 A2985 RMK A01 T00221049  RH  059%=      5-min Rain = 0
KAOS 220705Z 11011KT 02/M05 A2985 RMK A01 T00221048  RH  060%=      5-min Rain = 0
KAOS 220710Z 11011KT 02/M05 A2985 RMK A01 T00231046  RH  061%=      5-min Rain = 0
KAOS 220715Z 11010KT 02/M05 A2985 RMK A01 T00211047  RH  061%=      5-min Rain = 0
KAOS 220720Z 11010KT 02/M05 A2985 RMK A01 T00201047  RH  061%=      5-min Rain = 0
KAOS 220725Z 12008KT 02/M05 A2986 RMK A01 T00191048  RH  062%=      5-min Rain = 0
KAOS 220730Z 11007KT 02/M05 A2986 RMK A01 T00171049  RH  062%=      5-min Rain = 0
KAOS 220735Z 11006KT 02/M05 A2986 RMK A01 T00151049  RH  063%=      5-min Rain = 0
KAOS 220740Z 11005KT 02/M05 A2987 RMK A01 T00151049  RH  063%=      5-min Rain = 0
KAOS 220745Z 10005KT 01/M05 A2987 RMK A01 T00131050  RH  063%=      5-min Rain = 0
KAOS 220750Z 08005KT 01/M05 A2987 RMK A01 T00101052  RH  063%=      5-min Rain = 0
KAOS 220755Z 07004KT 01/M06 A2987 RMK A01 T00081055  RH  063%=      5-min Rain = 0
KAOS 220800Z 08004KT 00/M06 A2987 RMK A01 T00031060  RH  063%=      5-min Rain = 0
KAOS 220805Z 08006KT 00/06 A2987 RMK A01 T00-00-60  RH  064%=      5-min Rain = 0
KAOS 220810Z 09007KT M00/M06 A2987 RMK A01 T10011058  RH  066%=      5-min Rain = 0
KAOS 220815Z 09007KT M00/M06 A2988 RMK A01 T10011057  RH  066%=      5-min Rain = 0
KAOS 220820Z 09006KT M00/M06 A2988 RMK A01 T10031058  RH  067%=      5-min Rain = 0
KAOS 220825Z 09007KT M00/M06 A2988 RMK A01 T10041057  RH  068%=      5-min Rain = 0
KAOS 220830Z 08005KT M01/M06 A2988 RMK A01 T10051057  RH  068%=      5-min Rain = 0
KAOS 220835Z 04003KT M01/M06 A2989 RMK A01 T10061057  RH  068%=      5-min Rain = 0
KAOS 220840Z 01003KT M01/M05 A2989 RMK A01 T10051054  RH  070%=      5-min Rain = 0
KAOS 220845Z 02004KT M00/M05 A299 RMK A01 T10041052  RH  070%=      5-min Rain = 0
KAOS 220850Z 05004KT M01/M06 A2989 RMK A01 T10071057  RH  069%=      5-min Rain = 0
KAOS 220855Z 06004KT M01/M06 A2989 RMK A01 T10111060  RH  070%=      5-min Rain = 0
KAOS 220900Z 05004KT M01/M06 A2989 RMK A01 T10131062  RH  070%=      5-min Rain = 0
KAOS 220905Z 03004KT M01/M06 A2989 RMK A01 T10121057  RH  072%=      5-min Rain = 0
KAOS 220910Z 03005KT M01/M06 A2989 RMK A01 T10141061  RH  071%=      5-min Rain = 0
KAOS 220915Z 03006KT M02/M07 A2989 RMK A01 T10181065  RH  070%=      5-min Rain = 0
KAOS 220920Z 01006KT M02/M07 A2989 RMK A01 T10181065  RH  071%=      5-min Rain = 0
KAOS 220925Z 01006KT M02/M06 A2989 RMK A01 T10201061  RH  074%=      5-min Rain = 0
KAOS 220930Z 01006KT M02/M06 A2989 RMK A01 T10201059  RH  075%=      5-min Rain = 0
KAOS 220935Z 02006KT M02/M06 A2989 RMK A01 T10201060  RH  074%=      5-min Rain = 0
KAOS 220940Z 03006KT M02/M06 A2988 RMK A01 T10211060  RH  075%=      5-min Rain = 0
KAOS 220945Z 04007KT M02/M06 A2988 RMK A01 T10201058  RH  076%=      5-min Rain = 0
KAOS 220950Z 05007KT M02/M06 A2988 RMK A01 T10201057  RH  076%=      5-min Rain = 0
KAOS 220955Z 05008KT M02/M06 A2987 RMK A01 T10201055  RH  077%=      5-min Rain = 0
KAOS 221000Z 05008KT M02/M05 A2987 RMK A01 T10181052  RH  078%=      5-min Rain = 0
KAOS 221005Z 06008KT M02/M05 A2987 RMK A01 T10171050  RH  079%=      5-min Rain = 0
KAOS 221010Z 06007KT M02/M05 A2987 RMK A01 T10151046  RH  080%=      5-min Rain = 0
KAOS 221015Z 06007KT M01/M04 A2987 RMK A01 T10131042  RH  081%=      5-min Rain = 0
KAOS 221020Z 05007KT M01/M04 A2987 RMK A01 T10131042  RH  082%=      5-min Rain = 0
KAOS 221025Z 05007KT M01/M04 A2988 RMK A01 T10141042  RH  082%=      5-min Rain = 0
KAOS 221030Z 04006KT M01/M04 A2988 RMK A01 T10141042  RH  082%=      5-min Rain = 0
KAOS 221035Z 04007KT M02/M04 A2988 RMK A01 T10151043  RH  082%=      5-min Rain = 0
KAOS 221040Z 05008KT M02/M04 A2988 RMK A01 T10161042  RH  083%=      5-min Rain = 0
KAOS 221045Z 05007KT M01/M04 A2988 RMK A01 T10141039  RH  084%=      5-min Rain = 0
KAOS 221050Z 05007KT M01/M04 A2988 RMK A01 T10141038  RH  084%=      5-min Rain = 0
KAOS 221055Z 05007KT M02/M04 A2988 RMK A01 T10151039  RH  084%=      5-min Rain = 0
KAOS 221100Z 05007KT M02/M04 A2988 RMK A01 T10151040  RH  084%=      5-min Rain = 0
KAOS 221105Z 06008KT M02/M04 A2988 RMK A01 T10151039  RH  084%=      5-min Rain = 0
KAOS 221110Z 06009KT M01/M04 A2987 RMK A01 T10121036  RH  084%=      5-min Rain = 0
KAOS 221115Z 07011KT M01/M03 A2987 RMK A01 T10111034  RH  085%=      5-min Rain = 0
KAOS 221120Z 07011KT M01/M03 A2987 RMK A01 T10121034  RH  085%=      5-min Rain = 0
KAOS 221125Z 06010KT M01/M04 A2987 RMK A01 T10131035  RH  086%=      5-min Rain = 0
KAOS 221130Z 06010KT M02/M04 A2987 RMK A01 T10151035  RH  087%=      5-min Rain = 0
KAOS 221135Z 07008KT M02/M04 A2987 RMK A01 T10171036  RH  087%=      5-min Rain = 0
KAOS 221140Z 08008KT M02/M04 A2988 RMK A01 T10191037  RH  088%=      5-min Rain = 0
KAOS 221145Z 08008KT M02/M04 A2988 RMK A01 T10181035  RH  089%=      5-min Rain = 0
KAOS 221150Z 08009KT M02/M03 A2988 RMK A01 T10161030  RH  091%=      5-min Rain = 0
KAOS 221155Z 09009KT M01/M03 A2988 RMK A01 T10141025  RH  093%=      5-min Rain = 0
KAOS 221200Z 09009KT M01/M02 A2988 RMK A01 T10131023  RH  094%=      5-min Rain = 0
KAOS 221205Z 10009KT M01/M02 A2988 RMK A01 T10111020  RH  094%=      5-min Rain = 0
KAOS 221210Z 10010KT M01/M02 A2988 RMK A01 T10091018  RH  094%=      5-min Rain = 0
KAOS 221215Z 10011KT M01/M02 A2988 RMK A01 T10071016  RH  094%=      5-min Rain = 0
KAOS 221220Z 10011KT M00/M01 A2988 RMK A01 T10031013  RH  094%=      5-min Rain = 0
KAOS 221225Z 10012KT M00/M01 A2988 RMK A01 T10011011  RH  094%=      5-min Rain = 0
KAOS 221230Z 10011KT 00/M01 A2988 RMK A01 T00011010  RH  093%=      5-min Rain = 0
KAOS 221235Z 10012KT 00/M01 A2989 RMK A01 T00031009  RH  093%=      5-min Rain = 0
KAOS 221240Z 10011KT 00/M01 A2989 RMK A01 T00031009  RH  093%=      5-min Rain = 0
KAOS 221245Z 10013KT 00/M01 A299 RMK A01 T00021009  RH  093%=      5-min Rain = 0
KAOS 221250Z 10011KT 00/M01 A299 RMK A01 T00021008  RH  093%=      5-min Rain = 0
KAOS 221255Z 10010KT 00/M01 A299 RMK A01 T00031008  RH  093%=      5-min Rain = 0
KAOS 221300Z 10011KT 00/M01 A299 RMK A01 T00041007  RH  093%=      5-min Rain = 0
KAOS 221305Z 11011KT 00/M01 A299 RMK A01 T00041007  RH  093%=      5-min Rain = 0
KAOS 221310Z 11011KT 00/M01 A299 RMK A01 T00041006  RH  094%=      5-min Rain = 0
KAOS 221315Z 11010KT 00/M01 A299 RMK A01 T00041005  RH  094%=      5-min Rain = 0
KAOS 221320Z 11009KT 01/M00 A299 RMK A01 T00051004  RH  095%=      5-min Rain = 0
KAOS 221325Z 12009KT 01/M00 A299 RMK A01 T00071002  RH  095%=      5-min Rain = 0
KAOS 221330Z 12008KT 01/M00 A299 RMK A01 T00071001  RH  095%=      5-min Rain = 0
KAOS 221335Z 11007KT 01/M00 A299 RMK A01 T00081001  RH  095%=      5-min Rain = 0
KAOS 221340Z 11007KT 01/00 A299 RMK A01 T000800-0  RH  095%=      5-min Rain = 0
KAOS 221345Z 12007KT 01/00 A299 RMK A01 T00080000  RH  095%=      5-min Rain = 0
KAOS 221350Z 12007KT 01/00 A2991 RMK A01 T00090001  RH  096%=      5-min Rain = 0
KAOS 221355Z 12008KT 01/00 A2991 RMK A01 T00100002  RH  096%=      5-min Rain = 0
KAOS 221400Z 12008KT 01/00 A2991 RMK A01 T00110004  RH  096%=      5-min Rain = 0
KAOS 221405Z 12008KT 01/01 A2991 RMK A01 T00120005  RH  096%=      5-min Rain = 0
KAOS 221410Z 12008KT 01/01 A2991 RMK A01 T00130007  RH  097%=      5-min Rain = 0
KAOS 221415Z 11007KT 02/01 A2991 RMK A01 T00150009  RH  097%=      5-min Rain = 0
KAOS 221420Z 11007KT 02/01 A2992 RMK A01 T00170011  RH  097%=      5-min Rain = 0
KAOS 221425Z 11006KT 02/01 A2992 RMK A01 T00190013  RH  097%=      5-min Rain = 0
KAOS 221430Z 11006KT 02/01 A2992 RMK A01 T00210014  RH  097%=      5-min Rain = 0
KAOS 221435Z 10006KT 02/02 A2992 RMK A01 T00230016  RH  097%=      5-min Rain = 0
KAOS 221440Z 11008KT 03/02 A2993 RMK A01 T00250018  RH  097%=      5-min Rain = 0
KAOS 221445Z 11009KT 03/02 A2993 RMK A01 T00280021  RH  097%=      5-min Rain = 0
KAOS 221450Z 12009KT 03/02 A2993 RMK A01 T00300022  RH  096%=      5-min Rain = 0
KAOS 221455Z 12009KT 03/02 A2993 RMK A01 T00320023  RH  096%=      5-min Rain = 0
KAOS 221500Z 12009KT 03/02 A2993 RMK A01 T00330024  RH  095%=      5-min Rain = 0
KAOS 221505Z 12009KT 04/03 A2994 RMK A01 T00350025  RH  095%=      5-min Rain = 0
KAOS 221510Z 12010KT 04/03 A2994 RMK A01 T00370025  RH  094%=      5-min Rain = 0
KAOS 221515Z 13009KT 04/03 A2994 RMK A01 T00380026  RH  094%=      5-min Rain = 0
KAOS 221520Z 13008KT 04/03 A2995 RMK A01 T00400027  RH  093%=      5-min Rain = 0
KAOS 221525Z 13009KT 04/03 A2995 RMK A01 T00410028  RH  093%=      5-min Rain = 0
KAOS 221530Z 13009KT 04/03 A2995 RMK A01 T00420028  RH  093%=      5-min Rain = 0
KAOS 221535Z 13009KT 04/03 A2995 RMK A01 T00430029  RH  092%=      5-min Rain = 0
KAOS 221540Z 13009KT 04/03 A2995 RMK A01 T00430029  RH  092%=      5-min Rain = 0
KAOS 221545Z 12009KT 04/03 A2995 RMK A01 T00430029  RH  092%=      5-min Rain = 0
KAOS 221550Z 12009KT 04/03 A2995 RMK A01 T00430029  RH  093%=      5-min Rain = 0
KAOS 221555Z 13008KT 04/03 A2995 RMK A01 T00440031  RH  093%=      5-min Rain = 0
KAOS 221600Z 12007KT 05/03 A2996 RMK A01 T00450031  RH  092%=      5-min Rain = 0
KAOS 221605Z 12007KT 05/03 A2995 RMK A01 T00450031  RH  092%=      5-min Rain = 0
KAOS 221610Z 13007KT 05/03 A2995 RMK A01 T00460031  RH  092%=      5-min Rain = 0
KAOS 221615Z 12008KT 05/03 A2995 RMK A01 T00480032  RH  091%=      5-min Rain = 0
KAOS 221620Z 13007KT 05/03 A2995 RMK A01 T00480032  RH  091%=      5-min Rain = 0
KAOS 221625Z 14007KT 05/03 A2995 RMK A01 T00490032  RH  090%=      5-min Rain = 0
KAOS 221630Z 13007KT 05/03 A2995 RMK A01 T00500032  RH  090%=      5-min Rain = 0
KAOS 221635Z 13007KT 05/03 A2994 RMK A01 T00510032  RH  089%=      5-min Rain = 0
KAOS 221640Z 14007KT 05/03 A2994 RMK A01 T00540033  RH  088%=      5-min Rain = 0
KAOS 221645Z 15009KT 06/03 A2994 RMK A01 T00560032  RH  087%=      5-min Rain = 0
KAOS 221650Z 14008G13KT 06/03 A2994 RMK A01 T00560032  RH  086%=      5-min Rain = 0
KAOS 221655Z 14009KT 06/03 A2994 RMK A01 T00580032  RH  085%=      5-min Rain = 0
KAOS 221700Z 15008KT 06/03 A2994 RMK A01 T00580032  RH  084%=      5-min Rain = 0
KAOS 221705Z 15008KT 06/03 A2994 RMK A01 T00600031  RH  083%=      5-min Rain = 0
KAOS 221710Z 15008KT 06/03 A2994 RMK A01 T00600031  RH  083%=      5-min Rain = 0
KAOS 221715Z 16008KT 06/03 A2994 RMK A01 T00600031  RH  083%=      5-min Rain = 0
KAOS 221720Z 16006KT 06/03 A2994 RMK A01 T00620029  RH  081%=      5-min Rain = 0
KAOS 221725Z 15008KT 06/03 A2993 RMK A01 T00610030  RH  082%=      5-min Rain = 0
KAOS 221730Z 15008KT 06/03 A2993 RMK A01 T00640030  RH  081%=      5-min Rain = 0
KAOS 221735Z 15007KT 06/03 A2993 RMK A01 T00620030  RH  081%=      5-min Rain = 0
KAOS 221740Z 15007KT 06/03 A2993 RMK A01 T00630031  RH  081%=      5-min Rain = 0
KAOS 221745Z 13007KT 06/03 A2993 RMK A01 T00640030  RH  080%=      5-min Rain = 0
KAOS 221750Z 13005KT 07/03 A2993 RMK A01 T00650030  RH  080%=      5-min Rain = 0
KAOS 221755Z 14006KT 07/03 A2993 RMK A01 T00680032  RH  079%=      5-min Rain = 0
KAOS 221800Z 14006KT 07/03 A2992 RMK A01 T00690031  RH  078%=      5-min Rain = 0
KAOS 221805Z 15006KT 07/03 A2992 RMK A01 T00700030  RH  077%=      5-min Rain = 0
KAOS 221810Z 13006KT 07/03 A2992 RMK A01 T00720028  RH  075%=      5-min Rain = 0
KAOS 221815Z 15005KT 07/03 A2992 RMK A01 T00720028  RH  075%=      5-min Rain = 0
KAOS 221820Z 17005G11KT 08/03 A2992 RMK A01 T00750028  RH  074%=      5-min Rain = 0
KAOS 221825Z 18003G8KT 08/03 A2991 RMK A01 T00750027  RH  073%=      5-min Rain = 0
KAOS 221830Z 17005KT 08/03 A2991 RMK A01 T00810030  RH  071%=      5-min Rain = 0
KAOS 221835Z 14005KT 08/03 A299 RMK A01 T00820030  RH  071%=      5-min Rain = 0
KAOS 221840Z 13007KT 09/03 A299 RMK A01 T00850029  RH  069%=      5-min Rain = 0
KAOS 221845Z 14006G15KT 09/03 A2989 RMK A01 T00870031  RH  069%=      5-min Rain = 0
KAOS 221850Z 16006G14KT 09/03 A2989 RMK A01 T00920029  RH  066%=      5-min Rain = 0
KAOS 221855Z 16006G11KT 10/03 A2989 RMK A01 T00950031  RH  065%=      5-min Rain = 0
KAOS 221900Z 12007KT 10/03 A2988 RMK A01 T00960030  RH  065%=      5-min Rain = 0
KAOS 221905Z 14006G12KT 10/03 A2988 RMK A01 T00960031  RH  065%=      5-min Rain = 0
KAOS 221910Z 13007KT 10/03 A2988 RMK A01 T01000032  RH  064%=      5-min Rain = 0
KAOS 221915Z 13006KT 10/03 A2987 RMK A01 T01020033  RH  064%=      5-min Rain = 0
KAOS 221920Z 11004KT 10/03 A2987 RMK A01 T01040033  RH  063%=      5-min Rain = 0
KAOS 221925Z 17006KT 11/03 A2986 RMK A01 T01090033  RH  061%=      5-min Rain = 0
KAOS 221930Z 13008KT 11/03 A2986 RMK A01 T01120034  RH  060%=      5-min Rain = 0
KAOS 221935Z 18007G12KT 12/03 A2985 RMK A01 T01150033  RH  058%=      5-min Rain = 0
KAOS 221940Z 15007G12KT 12/03 A2985 RMK A01 T01150032  RH  058%=      5-min Rain = 0
KAOS 221945Z 13008KT 12/04 A2984 RMK A01 T01190035  RH  058%=      5-min Rain = 0
KAOS 221950Z 15008KT 12/03 A2984 RMK A01 T01200031  RH  055%=      5-min Rain = 0
KAOS 221955Z 15006KT 12/03 A2984 RMK A01 T01220030  RH  054%=      5-min Rain = 0
KAOS 222000Z 14007G12KT 13/03 A2983 RMK A01 T01260033  RH  054%=      5-min Rain = 0
KAOS 222005Z 13005G11KT 12/03 A2983 RMK A01 T01240031  RH  054%=      5-min Rain = 0
KAOS 222010Z 14008G13KT 13/03 A2982 RMK A01 T01270032  RH  053%=      5-min Rain = 0
KAOS 222015Z 14007G14KT 13/03 A2982 RMK A01 T01320032  RH  052%=      5-min Rain = 0
KAOS 222020Z 15009G14KT 14/03 A2982 RMK A01 T01370031  RH  049%=      5-min Rain = 0
KAOS 222025Z 14006G12KT 14/03 A2982 RMK A01 T01350029  RH  049%=      5-min Rain = 0
KAOS 222030Z 15009KT 14/02 A2982 RMK A01 T01370023  RH  047%=      5-min Rain = 0
KAOS 222035Z 15008G13KT 14/02 A2982 RMK A01 T01380023  RH  046%=      5-min Rain = 0
KAOS 222040Z 14008G14KT 14/03 A2981 RMK A01 T01390025  RH  047%=      5-min Rain = 0
KAOS 222045Z 13008KT 14/02 A2981 RMK A01 T01400024  RH  046%=      5-min Rain = 0
KAOS 222050Z 15006G12KT 14/02 A2981 RMK A01 T01400017  RH  044%=      5-min Rain = 0
KAOS 222055Z 14008G13KT 14/02 A298 RMK A01 T01430022  RH  044%=      5-min Rain = 0
KAOS 222100Z 14008KT 14/02 A298 RMK A01 T01440022  RH  044%=      5-min Rain = 0
KAOS 222105Z 13009KT 15/02 A298 RMK A01 T01470019  RH  043%=      5-min Rain = 0
KAOS 222110Z 13010KT 15/02 A298 RMK A01 T01490021  RH  043%=      5-min Rain = 0
KAOS 222115Z 14007KT 15/02 A2979 RMK A01 T01510017  RH  041%=      5-min Rain = 0
KAOS 222120Z 14011KT 15/02 A2979 RMK A01 T01520015  RH  040%=      5-min Rain = 0
KAOS 222125Z 14009G15KT 16/02 A2979 RMK A01 T01550016  RH  040%=      5-min Rain = 0
KAOS 222130Z 13009G14KT 16/02 A2979 RMK A01 T01560018  RH  040%=      5-min Rain = 0
KAOS 222135Z 14010KT 16/02 A2979 RMK A01 T01570018  RH  040%=      5-min Rain = 0
KAOS 222140Z 13011G17KT 16/02 A2978 RMK A01 T01570017  RH  039%=      5-min Rain = 0
KAOS 222145Z 14010G15KT 16/02 A2978 RMK A01 T01590017  RH  039%=      5-min Rain = 0
KAOS 222150Z 14011G17KT 16/02 A2978 RMK A01 T01600016  RH  038%=      5-min Rain = 0
KAOS 222155Z 13012G22KT 16/02 A2978 RMK A01 T01610017  RH  038%=      5-min Rain = 0
KAOS 222200Z 13012G19KT 16/02 A2978 RMK A01 T01590020  RH  040%=      5-min Rain = 0
KAOS 222205Z 11013KT 16/03 A2978 RMK A01 T01550029  RH  043%=      5-min Rain = 0
KAOS 222210Z 12013G18KT 16/03 A2978 RMK A01 T01550028  RH  043%=      5-min Rain = 0
KAOS 222215Z 12013G18KT 16/03 A2978 RMK A01 T01550029  RH  044%=      5-min Rain = 0
KAOS 222220Z 12014G21KT 16/03 A2978 RMK A01 T01560028  RH  043%=      5-min Rain = 0
KAOS 222225Z 11014KT 15/03 A2977 RMK A01 T01530029  RH  044%=      5-min Rain = 0
KAOS 222230Z 11015KT 15/03 A2977 RMK A01 T01540029  RH  044%=      5-min Rain = 0
KAOS 222235Z 12015KT 15/03 A2978 RMK A01 T01530032  RH  045%=      5-min Rain = 0
KAOS 222240Z 12016KT 15/03 A2978 RMK A01 T01510033  RH  046%=      5-min Rain = 0
KAOS 222245Z 12015KT 15/04 A2978 RMK A01 T01480036  RH  048%=      5-min Rain = 0
KAOS 222250Z 11017KT 14/04 A2978 RMK A01 T01430038  RH  050%=      5-min Rain = 0
KAOS 222255Z 11017KT 14/04 A2977 RMK A01 T01390039  RH  052%=      5-min Rain = 0
KAOS 222300Z 10018KT 14/04 A2977 RMK A01 T01360038  RH  052%=      5-min Rain = 0
KAOS 222305Z 10018G23KT 13/04 A2977 RMK A01 T01310037  RH  054%=      5-min Rain = 0
KAOS 222310Z 11018KT 13/04 A2978 RMK A01 T01260036  RH  055%=      5-min Rain = 0
KAOS 222315Z 11018KT 12/04 A2978 RMK A01 T01240035  RH  056%=      5-min Rain = 0
KAOS 222320Z 11017KT 12/04 A2978 RMK A01 T01210035  RH  057%=      5-min Rain = 0
KAOS 222325Z 11018KT 12/04 A2978 RMK A01 T01170035  RH  058%=      5-min Rain = 0
KAOS 222330Z 12016KT 12/03 A2978 RMK A01 T01160034  RH  058%=      5-min Rain = 0
KAOS 222335Z 11016KT 11/03 A2978 RMK A01 T01130034  RH  059%=      5-min Rain = 0
KAOS 222340Z 11015KT 11/03 A2978 RMK A01 T01110034  RH  060%=      5-min Rain = 0
KAOS 222345Z 11014KT 11/03 A2978 RMK A01 T01090034  RH  061%=      5-min Rain = 0
KAOS 222350Z 11014KT 11/03 A2978 RMK A01 T01070033  RH  061%=      5-min Rain = 0
KAOS 222355Z 11014KT 10/03 A2977 RMK A01 T01040032  RH  062%=      5-min Rain = 0
KAOS 230000Z 10014KT 10/03 A2977 RMK A01 T01010032  RH  063%=      5-min Rain = 0
KAOS 230005Z 10015KT 10/03 A2977 RMK A01 T00980031  RH  064%=      5-min Rain = 0
KAOS 230010Z 10014KT 10/03 A2977 RMK A01 T00950031  RH  065%=      5-min Rain = 0
KAOS 230015Z 10015KT 09/03 A2977 RMK A01 T00900030  RH  067%=      5-min Rain = 0
KAOS 230020Z 10014KT 09/03 A2977 RMK A01 T00870030  RH  069%=      5-min Rain = 0
KAOS 230025Z 10012KT 09/03 A2976 RMK A01 T00850029  RH  069%=      5-min Rain = 0
KAOS 230030Z 10011KT 08/03 A2976 RMK A01 T00830029  RH  070%=      5-min Rain = 0
KAOS 230035Z 10013KT 08/03 A2976 RMK A01 T00810028  RH  070%=      5-min Rain = 0
KAOS 230040Z 09013KT 08/03 A2975 RMK A01 T00770028  RH  072%=      5-min Rain = 0
KAOS 230045Z 09013KT 08/03 A2975 RMK A01 T00750028  RH  073%=      5-min Rain = 0
KAOS 230050Z 10013KT 07/03 A2976 RMK A01 T00730028  RH  074%=      5-min Rain = 0
KAOS 230055Z 09012KT 07/03 A2976 RMK A01 T00710027  RH  075%=      5-min Rain = 0
KAOS 230100Z 10014KT 07/03 A2976 RMK A01 T00680027  RH  076%=      5-min Rain = 0
KAOS 230105Z 10013KT 07/03 A2976 RMK A01 T00670027  RH  077%=      5-min Rain = 0
KAOS 230110Z 09013KT 07/03 A2976 RMK A01 T00660027  RH  077%=      5-min Rain = 0
KAOS 230115Z 09014KT 07/03 A2976 RMK A01 T00650027  RH  078%=      5-min Rain = 0
KAOS 230120Z 09015KT 06/03 A2976 RMK A01 T00630027  RH  079%=      5-min Rain = 0
KAOS 230125Z 09015KT 06/03 A2975 RMK A01 T00620027  RH  080%=      5-min Rain = 0
KAOS 230130Z 09015KT 06/03 A2975 RMK A01 T00600027  RH  081%=      5-min Rain = 0
KAOS 230135Z 09015KT 06/03 A2975 RMK A01 T00590028  RH  082%=      5-min Rain = 0
KAOS 230140Z 09014KT 06/03 A2975 RMK A01 T00580027  RH  082%=      5-min Rain = 0
KAOS 230145Z 09014KT 06/03 A2974 RMK A01 T00570027  RH  083%=      5-min Rain = 0
KAOS 230150Z 09014KT 06/03 A2974 RMK A01 T00560027  RH  083%=      5-min Rain = 0
KAOS 230155Z 08015KT 06/03 A2973 RMK A01 T00550028  RH  084%=      5-min Rain = 0
KAOS 230200Z 08015KT 06/03 A2972 RMK A01 T00560029  RH  084%=      5-min Rain = 0
KAOS 230205Z 09015KT 05/03 A2972 RMK A01 T00540028  RH  085%=      5-min Rain = 0
KAOS 230210Z 09017G22KT 06/03 A2973 RMK A01 T00550029  RH  085%=      5-min Rain = 0
KAOS 230215Z 10018KT 06/03 A2974 RMK A01 T00570034  RH  086%=      5-min Rain = 0
KAOS 230220Z 10019G25KT 06/04 A2974 RMK A01 T00600038  RH  087%=      5-min Rain = 0
KAOS 230225Z 09019KT 06/04 A2974 RMK A01 T00620041  RH  088%=      5-min Rain = 0
KAOS 230230Z 09019KT 06/04 A2974 RMK A01 T00620042  RH  089%=      5-min Rain = 0
KAOS 230235Z 09018KT 06/04 A2974 RMK A01 T00620042  RH  089%=      5-min Rain = 0
KAOS 230240Z 09018KT 06/04 A2974 RMK A01 T00610043  RH  090%=      5-min Rain = 0
KAOS 230245Z 09017KT 06/04 A2974 RMK A01 T00600044  RH  091%=      5-min Rain = 0
KAOS 230250Z 09017G22KT 06/05 A2974 RMK A01 T00590045  RH  093%=      5-min Rain = 0
KAOS 230255Z 09015G20KT 06/05 A2975 RMK A01 T00590045  RH  093%=      5-min Rain = 0
KAOS 230300Z 10016G21KT 06/05 A2975 RMK A01 T00580046  RH  094%=      5-min Rain = 0
KAOS 230305Z 10016KT 06/05 A2975 RMK A01 T00580047  RH  095%=      5-min Rain = 0
KAOS 230310Z 10015KT 06/05 A2975 RMK A01 T00580047  RH  095%=      5-min Rain = 0
KAOS 230315Z 10016KT 06/05 A2975 RMK A01 T00580047  RH  095%=      5-min Rain = 0
KAOS 230320Z 10015KT 06/05 A2975 RMK A01 T00570047  RH  096%=      5-min Rain = 0
KAOS 230325Z 10014KT 06/05 A2975 RMK A01 T00570048  RH  096%=      5-min Rain = 0
KAOS 230330Z 10013KT 06/05 A2975 RMK A01 T00570049  RH  096%=      5-min Rain = 0
KAOS 230335Z 09012KT 06/05 A2976 RMK A01 T00570048  RH  096%=      5-min Rain = 0
KAOS 230340Z 10013KT 06/05 A2977 RMK A01 T00570049  RH  097%=      5-min Rain = 0
KAOS 230345Z 10011KT 06/05 A2977 RMK A01 T00570049  RH  097%=      5-min Rain = 0
KAOS 230350Z 10010KT 06/05 A2977 RMK A01 T00570049  RH  097%=      5-min Rain = 0
KAOS 230355Z 10009KT 06/05 A2978 RMK A01 T00570049  RH  097%=      5-min Rain = 0
KAOS 230400Z 11005KT 06/05 A2979 RMK A01 T00570049  RH  097%=      5-min Rain = 0
KAOS 230405Z 10003KT 06/05 A2979 RMK A01 T00570049  RH  097%=      5-min Rain = 0
KAOS 230410Z 06002KT 06/05 A2978 RMK A01 T00570049  RH  097%=      5-min Rain = 0
KAOS 230415Z 08005KT 06/05 A2977 RMK A01 T00580050  RH  097%=      5-min Rain = 0
KAOS 230420Z 08007KT 06/05 A2976 RMK A01 T00580051  RH  097%=      5-min Rain = 0
KAOS 230425Z 09008KT 06/05 A2976 RMK A01 T00580051  RH  097%=      5-min Rain = 0
KAOS 230430Z 09008KT 06/05 A2976 RMK A01 T00580051  RH  097%=      5-min Rain = 0
KAOS 230435Z 10009KT 06/05 A2976 RMK A01 T00580051  RH  097%=      5-min Rain = 0
KAOS 230440Z 08011KT 06/05 A2975 RMK A01 T00580051  RH  097%=      5-min Rain = 0
KAOS 230445Z 08013KT 06/05 A2973 RMK A01 T00580051  RH  098%=      5-min Rain = 0.01
KAOS 230450Z 08012KT 06/05 A2972 RMK A01 T00580051  RH  098%=      5-min Rain = 0
KAOS 230455Z 08012KT 06/05 A2972 RMK A01 T00580051  RH  098%=      5-min Rain = 0
KAOS 230500Z 08013KT 06/05 A2971 RMK A01 T00580051  RH  098%=      5-min Rain = 0
KAOS 230505Z 08012KT 06/05 A2971 RMK A01 T00580051  RH  098%=      5-min Rain = 0
KAOS 230510Z 09014KT 06/05 A2971 RMK A01 T00580051  RH  098%=      5-min Rain = 0
KAOS 230515Z 08015KT 06/05 A297 RMK A01 T00580051  RH  098%=      5-min Rain = 0
KAOS 230520Z 09014KT 06/05 A297 RMK A01 T00580051  RH  098%=      5-min Rain = 0
KAOS 230525Z 10016G22KT 06/05 A297 RMK A01 T00580051  RH  098%=      5-min Rain = 0
KAOS 230530Z 10016G22KT 06/05 A297 RMK A01 T00580051  RH  098%=      5-min Rain = 0
KAOS 230535Z 10015KT 06/05 A297 RMK A01 T00580051  RH  097%=      5-min Rain = 0
KAOS 230540Z 10014KT 06/05 A297 RMK A01 T00580051  RH  097%=      5-min Rain = 0
KAOS 230545Z 09016KT 06/05 A2968 RMK A01 T00580051  RH  097%=      5-min Rain = 0
KAOS 230550Z 10016KT 06/05 A2968 RMK A01 T00580051  RH  098%=      5-min Rain = 0
KAOS 230555Z 10013KT 06/05 A2969 RMK A01 T00580051  RH  098%=      5-min Rain = 0

Page generated in 0.0122 seconds.